Time;durP1;ratioP1;P1;durP2;ratioP2;P2;SDS_P1;SDS_P2;PMS_P1;PMS_P2;Temp;Humidity;BMP_temperature;BMP_pressure;BME280_temperature;BME280_humidity;BME280_pressure;Samples;Min_cycle;Max_cycle;Signal;HPM_P1;HPM_P2
2023/01/11 00:00:38;;;;;;;1.33;1.23;;;;;;;9.14;98.28;100652.31;4869486;29;20049;-72
2023/01/11 00:03:06;;;;;;;4.22;1.38;;;;;;;9.14;98.46;100651.41;4860497;29;20054;-73
2023/01/11 00:05:42;;;;;;;3.20;1.40;;;;;;;9.18;98.24;100650.44;4868105;29;20056;-74
2023/01/11 00:08:10;;;;;;;4.10;1.23;;;;;;;9.22;97.96;100640.69;4859294;29;20512;-74
2023/01/11 00:10:38;;;;;;;3.72;1.30;;;;;;;9.24;97.94;100649.41;4864974;29;20042;-74
2023/01/11 00:13:05;;;;;;;2.58;1.25;;;;;;;9.26;98.22;100642.34;4854145;29;20050;-73
2023/01/11 00:15:35;;;;;;;3.38;1.70;;;;;;;9.28;97.89;100643.16;4863752;29;20379;-75
2023/01/11 00:18:02;;;;;;;3.05;1.38;;;;;;;9.30;98.08;100636.97;4870846;29;20053;-73
2023/01/11 00:20:32;;;;;;;2.00;1.08;;;;;;;9.33;98.11;100639.47;4867807;29;20052;-73
2023/01/11 00:22:59;;;;;;;3.38;1.13;;;;;;;9.36;98.09;100642.94;4867520;29;20502;-73
2023/01/11 00:25:26;;;;;;;2.50;1.30;;;;;;;9.41;97.95;100634.00;4857789;29;20732;-73
2023/01/11 00:27:53;;;;;;;2.25;1.20;;;;;;;9.43;97.74;100626.94;4857547;29;20034;-73
2023/01/11 00:30:21;;;;;;;3.60;1.25;;;;;;;9.45;97.51;100622.50;4869745;29;20559;-73
2023/01/11 00:32:49;;;;;;;2.75;1.00;;;;;;;9.48;97.44;100619.75;4874579;29;20726;-74
2023/01/11 00:35:15;;;;;;;1.88;0.90;;;;;;;9.50;97.27;100632.88;4860097;29;20791;-75
2023/01/11 00:37:43;;;;;;;1.10;0.95;;;;;;;9.52;97.27;100630.19;4868920;29;20050;-75
2023/01/11 00:40:10;;;;;;;2.53;0.82;;;;;;;9.53;97.39;100624.03;4870748;29;20062;-75
2023/01/11 00:48:09;;;;;;;1.40;0.98;;;;;;;9.59;96.98;100605.41;4866499;29;20049;-73
2023/01/11 00:50:39;;;;;;;1.40;0.90;;;;;;;9.61;97.13;100614.13;4870118;29;20588;-73
2023/01/11 00:53:08;;;;;;;2.67;1.10;;;;;;;9.61;96.87;100599.19;4871508;29;20044;-71
2023/01/11 00:55:36;;;;;;;3.17;0.80;;;;;;;9.64;97.01;100604.38;4861295;29;20042;-72
2023/01/11 00:58:03;;;;;;;2.75;0.93;;;;;;;9.64;97.14;100607.00;4864218;29;20496;-72
2023/01/11 01:00:30;;;;;;;2.85;1.10;;;;;;;9.68;96.96;100599.88;4873184;29;20117;-71
2023/01/11 01:02:57;;;;;;;2.97;0.80;;;;;;;9.71;96.79;100597.16;4873090;29;20055;-72
2023/01/11 01:05:24;;;;;;;1.55;0.93;;;;;;;9.76;96.69;100597.91;4872526;29;20046;-72
2023/01/11 01:07:52;;;;;;;2.72;1.20;;;;;;;9.79;96.58;100589.03;4867890;29;20062;-72
2023/01/11 01:10:19;;;;;;;3.63;0.98;;;;;;;9.82;96.70;100593.34;4868280;29;20518;-72
2023/01/11 01:15:32;;;;;;;2.85;1.08;;;;;;;9.84;96.84;100594.16;4865374;29;20517;-72
2023/01/11 01:18:00;;;;;;;2.97;1.00;;;;;;;9.83;97.08;100595.91;4871742;29;20049;-73
2023/01/11 01:20:27;;;;;;;2.65;1.30;;;;;;;9.84;97.04;100587.09;4865574;29;20092;-73
2023/01/11 01:22:54;;;;;;;4.32;1.25;;;;;;;9.84;97.10;100588.88;4863684;29;20049;-74
2023/01/11 01:25:21;;;;;;;3.00;1.00;;;;;;;9.85;97.28;100596.72;4871523;29;20037;-75
2023/01/11 01:27:48;;;;;;;1.60;1.13;;;;;;;9.87;97.37;100592.28;4872285;29;20052;-75
2023/01/11 01:30:16;;;;;;;1.85;1.20;;;;;;;9.87;97.43;100591.44;4874413;29;20101;-74
2023/01/11 01:32:43;;;;;;;1.70;1.25;;;;;;;9.88;97.58;100596.66;4862955;29;20488;-74
2023/01/11 01:35:10;;;;;;;4.88;1.13;;;;;;;9.87;97.83;100596.69;4873927;29;20193;-74
2023/01/11 01:37:37;;;;;;;3.42;1.10;;;;;;;9.86;97.96;100585.28;4864118;29;20050;-74
2023/01/11 01:40:05;;;;;;;2.50;1.17;;;;;;;9.86;98.15;100589.72;4867847;29;20046;-74
2023/01/11 01:42:32;;;;;;;3.67;1.20;;;;;;;9.85;98.36;100586.19;4858504;29;20061;-73
2023/01/11 01:45:22;;;;;;;3.25;1.40;;;;;;;9.84;98.57;100588.88;4871834;29;20648;-74
2023/01/11 01:48:12;;;;;;;4.35;1.20;;;;;;;9.85;98.66;100587.97;4866757;29;20045;-73
2023/01/11 01:50:58;;;;;;;2.25;1.23;;;;;;;9.83;98.91;100593.28;4871953;29;20050;-74
2023/01/11 01:53:37;;;;;;;2.95;1.20;;;;;;;9.83;99.17;100588.00;4867019;29;20056;-73
2023/01/11 01:56:13;;;;;;;1.83;1.08;;;;;;;9.82;99.22;100581.00;4872494;29;20057;-74
2023/01/11 01:58:49;;;;;;;1.80;1.13;;;;;;;9.82;99.51;100581.00;4869089;29;20046;-74
2023/01/11 02:04:13;;;;;;;3.28;1.13;;;;;;;9.80;99.76;100590.75;4862680;29;20042;-73
2023/01/11 02:06:41;;;;;;;1.67;1.00;;;;;;;9.80;99.86;100593.41;4871179;29;20169;-74
2023/01/11 02:09:22;;;;;;;3.05;1.20;;;;;;;9.81;100.00;100588.97;4865600;29;20667;-73
2023/01/11 02:11:50;;;;;;;1.88;1.23;;;;;;;9.80;100.00;100585.50;4869104;29;20069;-74
2023/01/11 02:14:19;;;;;;;2.00;0.95;;;;;;;9.80;100.00;100585.50;4862181;29;20057;-73
2023/01/11 02:16:46;;;;;;;2.63;0.90;;;;;;;9.82;100.00;100590.69;4862526;29;20053;-73
2023/01/11 02:19:24;;;;;;;1.15;0.90;;;;;;;9.82;100.00;100582.81;4872383;29;20110;-75
2023/01/11 02:22:31;;;;;;;2.50;1.00;;;;;;;9.83;100.00;100581.91;4870619;29;20537;-73
2023/01/11 02:25:14;;;;;;;1.23;1.05;;;;;;;9.86;100.00;100577.38;4872494;29;20170;-73
2023/01/11 02:28:09;;;;;;;0.98;0.80;;;;;;;9.85;100.00;100588.84;4865114;29;20046;-74
2023/01/11 02:30:39;;;;;;;;;;;;;;;9.82;100.00;100570.47;4867623;29;20046;-76
2023/01/11 02:33:24;;;;;;;1.38;0.88;;;;;;;9.85;100.00;100572.19;4872632;29;20020;-75
2023/01/11 02:36:25;;;;;;;2.80;1.00;;;;;;;9.87;100.00;100570.38;4855939;29;20064;-75
2023/01/11 02:39:21;;;;;;;1.20;0.90;;;;;;;9.88;100.00;100572.06;4868416;29;20052;-74
2023/01/11 02:45:25;;;;;;;1.50;0.90;;;;;;;9.91;100.00;100561.44;4864563;29;20054;-74
2023/01/11 02:48:06;;;;;;;1.67;0.90;;;;;;;9.92;100.00;100564.00;4872246;29;20050;-74
2023/01/11 02:50:47;;;;;;;2.03;1.00;;;;;;;9.93;100.00;100559.63;4873347;29;20120;-75
2023/01/11 02:53:36;;;;;;;1.85;1.00;;;;;;;9.94;100.00;100556.94;4864743;29;20110;-73
2023/01/11 02:56:11;;;;;;;2.92;1.23;;;;;;;9.94;100.00;100562.19;4870188;29;20821;-74
2023/01/11 02:58:43;;;;;;;1.45;0.95;;;;;;;9.95;100.00;100563.09;4861257;29;20125;-75
2023/01/11 03:01:12;;;;;;;2.58;0.93;;;;;;;9.97;100.00;100558.59;4861935;29;20524;-73
2023/01/11 03:03:39;;;;;;;1.88;1.00;;;;;;;10.00;100.00;100555.03;4861479;29;20155;-75
2023/01/11 03:06:17;;;;;;;1.98;0.90;;;;;;;10.00;100.00;100553.25;4860587;29;20073;-73
2023/01/11 03:09:11;;;;;;;1.00;0.90;;;;;;;10.04;100.00;100551.38;4866581;29;20878;-74
2023/01/11 03:15:27;;;;;;;1.40;0.95;;;;;;;10.04;100.00;100538.19;4863818;29;20045;-74
2023/01/11 03:18:22;;;;;;;1.10;1.00;;;;;;;10.07;100.00;100543.38;4871989;29;20113;-73
2023/01/11 03:21:22;;;;;;;2.15;0.90;;;;;;;10.07;100.00;100546.84;4869988;29;20052;-74
2023/01/11 03:24:19;;;;;;;0.75;0.75;;;;;;;10.07;100.00;100538.97;4868591;29;20046;-73
2023/01/11 03:27:16;;;;;;;1.23;0.80;;;;;;;10.09;100.00;100533.66;4869646;29;20403;-72
2023/01/11 03:30:14;;;;;;;1.75;0.82;;;;;;;10.10;100.00;100532.75;4863004;29;20042;-72
2023/01/11 03:33:07;;;;;;;0.77;0.77;;;;;;;10.11;100.00;100531.84;4862798;29;20042;-72
2023/01/11 03:35:57;;;;;;;1.67;0.90;;;;;;;10.12;100.00;100537.97;4871168;29;20129;-71
2023/01/11 03:38:44;;;;;;;0.80;0.70;;;;;;;10.13;100.00;100543.16;4867882;29;20042;-72
2023/01/11 03:41:23;;;;;;;1.77;0.90;;;;;;;10.17;100.00;100539.53;4861545;29;20475;-72
2023/01/11 03:43:55;;;;;;;0.90;0.75;;;;;;;10.18;100.00;100537.75;4867569;29;20488;-74
2023/01/11 03:46:30;;;;;;;1.05;0.70;;;;;;;10.19;100.00;100529.81;4858582;29;20050;-74
2023/01/11 03:49:14;;;;;;;0.73;0.65;;;;;;;10.21;100.00;100540.28;4864601;29;20050;-73
2023/01/11 03:51:44;;;;;;;1.63;0.80;;;;;;;10.23;100.00;100534.03;4873288;29;20048;-72
2023/01/11 03:54:20;;;;;;;1.55;0.80;;;;;;;10.24;100.00;100541.03;4865402;29;20087;-73
2023/01/11 03:57:05;;;;;;;2.05;0.80;;;;;;;10.25;100.00;100536.63;4863814;29;20058;-71
2023/01/11 03:59:33;;;;;;;1.00;0.80;;;;;;;10.26;100.00;100536.56;4861501;29;20096;-70
2023/01/11 04:02:01;;;;;;;0.77;0.70;;;;;;;10.30;100.00;100541.75;4871598;29;20061;-71
2023/01/11 04:04:28;;;;;;;0.85;0.70;;;;;;;10.30;100.00;100533.84;4861732;29;20049;-71
2023/01/11 04:06:55;;;;;;;0.70;0.70;;;;;;;10.33;100.00;100537.22;4875647;29;20106;-72
2023/01/11 04:09:22;;;;;;;1.20;0.70;;;;;;;10.34;100.00;100543.34;4872677;29;20041;-71
2023/01/11 04:11:49;;;;;;;0.70;0.70;;;;;;;10.35;100.00;100542.44;4873285;29;20042;-72
2023/01/11 04:14:16;;;;;;;0.80;0.70;;;;;;;10.36;100.00;100541.53;4867975;29;20910;-71
2023/01/11 04:16:43;;;;;;;1.15;0.80;;;;;;;10.37;100.00;100533.63;4875340;29;20144;-71
2023/01/11 04:19:10;;;;;;;0.77;0.75;;;;;;;10.36;100.00;100549.44;4868837;29;20050;-70
2023/01/11 04:21:37;;;;;;;1.58;0.70;;;;;;;10.38;100.00;100547.66;4865588;29;20132;-71
2023/01/11 04:24:04;;;;;;;1.40;0.90;;;;;;;10.38;100.00;100537.09;4872088;29;20044;-71
2023/01/11 04:26:32;;;;;;;0.73;0.73;;;;;;;10.39;100.00;100546.75;4868063;29;20559;-74
2023/01/11 04:28:58;;;;;;;0.60;0.60;;;;;;;10.38;100.00;100553.78;4871477;29;20203;-74
2023/01/11 04:31:26;;;;;;;1.05;0.88;;;;;;;10.38;100.00;100548.50;4872968;29;20750;-77
2023/01/11 04:33:52;;;;;;;1.90;0.80;;;;;;;10.38;100.00;100559.03;4871650;29;20042;-76
2023/01/11 04:36:19;;;;;;;0.95;0.70;;;;;;;10.39;100.00;100555.50;4863172;29;20061;-77
2023/01/11 04:38:47;;;;;;;1.00;0.80;;;;;;;10.39;100.00;100552.00;4875850;29;20048;-76
2023/01/11 04:43:59;;;;;;;0.80;0.80;;;;;;;10.40;100.00;100551.94;4873163;29;20217;-79
2023/01/11 04:46:26;;;;;;;0.70;0.70;;;;;;;10.41;100.00;100555.47;4870252;29;20046;-76
2023/01/11 04:48:55;;;;;;;1.42;0.75;;;;;;;10.40;100.00;100561.63;4870619;29;20078;-76
2023/01/11 04:51:22;;;;;;;0.75;0.70;;;;;;;10.41;100.00;100572.13;4862874;29;20049;-76
2023/01/11 04:53:49;;;;;;;0.77;0.75;;;;;;;10.39;100.00;100579.22;4873208;29;20473;-78
2023/01/11 04:56:17;;;;;;;2.33;0.90;;;;;;;10.39;100.00;100570.47;4870726;29;20101;-75
2023/01/11 04:58:45;;;;;;;1.55;0.80;;;;;;;10.38;100.00;100564.31;4862111;29;20143;-77
2023/01/11 05:01:18;;;;;;;1.00;0.90;;;;;;;10.38;100.00;100574.84;4868025;29;20046;-77
2023/01/11 05:03:45;;;;;;;1.13;1.02;;;;;;;10.38;100.00;100560.81;4867696;29;20176;-76
2023/01/11 05:06:14;;;;;;;0.80;0.80;;;;;;;10.39;100.00;100566.03;4866881;29;20093;-76
2023/01/11 05:08:46;;;;;;;2.75;1.00;;;;;;;10.40;100.00;100567.75;4872545;29;20501;-76
2023/01/11 05:11:15;;;;;;;1.33;0.95;;;;;;;10.41;100.00;100571.28;4870949;29;20093;-77
2023/01/11 05:13:43;;;;;;;1.05;0.95;;;;;;;10.43;100.00;100569.41;4864226;29;20057;-77
2023/01/11 05:16:22;;;;;;;4.05;1.10;;;;;;;10.44;100.00;100563.25;4881265;29;20053;-74
2023/01/11 05:18:59;;;;;;;1.63;1.10;;;;;;;10.48;100.00;100566.66;4871726;29;20033;-74
2023/01/11 05:21:34;;;;;;;1.50;1.10;;;;;;;10.50;100.00;100573.59;4874063;29;20053;-75
2023/01/11 05:24:05;;;;;;;1.20;1.10;;;;;;;10.53;100.00;100578.72;4872704;29;20078;-72
2023/01/11 05:26:36;;;;;;;3.22;1.10;;;;;;;10.56;100.00;100581.28;4865877;29;20134;-73
2023/01/11 05:29:07;;;;;;;1.75;1.20;;;;;;;10.59;100.00;100584.72;4859177;29;20078;-72
2023/01/11 05:31:37;;;;;;;1.23;1.05;;;;;;;10.62;100.00;100579.34;4871863;29;20082;-73
2023/01/11 05:34:08;;;;;;;1.10;1.00;;;;;;;10.64;100.00;100581.03;4872791;29;20056;-73
2023/01/11 05:36:35;;;;;;;1.33;1.00;;;;;;;10.67;100.00;100594.09;4868548;29;20053;-74
2023/01/11 05:39:04;;;;;;;2.10;0.73;;;;;;;10.71;100.00;100586.94;4863842;29;20053;-76
2023/01/11 05:41:31;;;;;;;2.17;0.85;;;;;;;10.78;100.00;100587.59;4869054;29;20049;-76
2023/01/11 05:46:44;;;;;;;2.78;0.90;;;;;;;10.92;100.00;100595.00;4863202;29;20076;-75
2023/01/11 05:49:19;;;;;;;1.27;0.90;;;;;;;10.96;100.00;100589.56;4864287;29;20756;-73
2023/01/11 05:51:46;;;;;;;1.73;0.80;;;;;;;11.01;100.00;100592.03;4864380;29;20052;-76
2023/01/11 05:54:14;;;;;;;0.73;0.70;;;;;;;11.07;100.00;100583.91;4867807;29;20094;-77
2023/01/11 05:56:42;;;;;;;4.10;1.40;;;;;;;11.13;100.00;100591.59;4864956;29;20057;-76
2023/01/11 05:59:09;;;;;;;2.70;1.30;;;;;;;11.17;100.00;100600.25;4865952;29;20041;-76
2023/01/11 06:01:37;;;;;;;4.13;1.70;;;;;;;11.22;100.00;100597.44;4867796;29;20097;-75
2023/01/11 06:04:04;;;;;;;5.03;1.70;;;;;;;11.23;100.00;100601.81;4864823;29;20042;-76
2023/01/11 06:06:32;;;;;;;2.25;1.58;;;;;;;11.24;100.00;100599.09;4862820;29;20942;-75
2023/01/11 06:08:59;;;;;;;2.58;1.75;;;;;;;11.29;100.00;100597.16;4863766;29;20861;-75
2023/01/11 06:11:27;;;;;;;2.53;1.40;;;;;;;11.32;100.00;100593.56;4865646;29;20491;-74
2023/01/11 06:13:54;;;;;;;2.80;1.67;;;;;;;11.34;100.00;100591.72;4863816;29;20060;-74
2023/01/11 06:16:22;;;;;;;3.75;2.22;;;;;;;11.35;100.00;100598.69;4862702;29;20045;-76
2023/01/11 06:18:52;;;;;;;2.60;1.77;;;;;;;11.38;100.00;100589.84;4864541;29;20054;-76
2023/01/11 06:21:20;;;;;;;4.05;2.10;;;;;;;11.35;100.00;100596.06;4880074;29;20050;-75
2023/01/11 06:23:52;;;;;;;3.25;2.20;;;;;;;11.36;100.00;100604.84;4866241;29;20500;-76
2023/01/11 06:26:21;;;;;;;4.13;2.60;;;;;;;11.36;100.00;100602.22;4865485;29;20046;-74
2023/01/11 06:28:50;;;;;;;8.60;2.95;;;;;;;11.33;100.00;100600.56;4870603;29;20045;-73
2023/01/11 06:31:17;;;;;;;5.20;2.90;;;;;;;11.30;100.00;100612.06;4868063;29;20052;-73
2023/01/11 06:33:46;;;;;;;5.25;3.40;;;;;;;11.25;100.00;100618.44;4865233;29;20055;-73
2023/01/11 06:36:14;;;;;;;5.90;3.15;;;;;;;11.23;100.00;100618.50;4873248;29;20055;-73
2023/01/11 06:38:43;;;;;;;7.60;4.00;;;;;;;11.19;100.00;100632.75;4873404;29;20102;-72
2023/01/11 06:41:11;;;;;;;9.13;4.30;;;;;;;11.17;99.12;100651.25;4855959;29;20132;-72
2023/01/11 06:43:40;;;;;;;6.50;2.80;;;;;;;11.14;97.41;100646.06;4863871;29;20056;-74
2023/01/11 06:46:15;;;;;;;7.80;2.63;;;;;;;11.08;96.98;100648.94;4872538;29;20057;-74
2023/01/11 06:48:43;;;;;;;;;;;;;;;10.99;97.11;100655.38;4872360;29;20150;-74
2023/01/11 06:51:12;;;;;;;7.13;3.25;;;;;;;10.92;97.21;100668.84;4866658;29;20494;-75
2023/01/11 06:53:41;;;;;;;10.15;3.65;;;;;;;10.84;97.18;100672.59;4866371;29;20119;-74
2023/01/11 06:56:15;;;;;;;8.25;3.45;;;;;;;10.76;97.67;100685.19;4873024;29;20092;-74
2023/01/11 06:58:42;;;;;;;10.48;3.85;;;;;;;10.68;98.10;100687.22;4868807;29;20046;-74
2023/01/11 07:01:12;;;;;;;11.60;2.55;;;;;;;10.63;96.79;100684.75;4867325;29;20041;-72
2023/01/11 07:03:40;;;;;;;10.88;2.45;;;;;;;10.58;96.75;100684.03;4861761;29;20547;-73
2023/01/11 07:06:07;;;;;;;10.60;2.42;;;;;;;10.53;96.89;100699.13;4873213;29;20046;-74
2023/01/11 07:08:34;;;;;;;17.27;2.55;;;;;;;10.49;95.85;100690.47;4859209;29;20084;-73
2023/01/11 07:11:01;;;;;;;13.35;2.65;;;;;;;10.46;95.62;100674.75;4855509;29;20464;-73
2023/01/11 07:13:28;;;;;;;13.35;2.80;;;;;;;10.36;96.03;100697.88;4868863;29;20128;-73
2023/01/11 07:15:56;;;;;;;12.48;2.53;;;;;;;10.31;96.59;100720.00;4859064;29;20497;-73
2023/01/11 07:18:23;;;;;;;11.43;2.10;;;;;;;10.27;96.14;100724.53;4868772;29;20084;-73
2023/01/11 07:20:51;;;;;;;13.80;2.42;;;;;;;10.24;96.18;100719.34;4873282;29;20042;-74
2023/01/11 07:23:18;;;;;;;11.98;2.03;;;;;;;10.20;96.22;100710.66;4873166;29;20114;-73
2023/01/11 07:25:47;;;;;;;19.67;2.80;;;;;;;10.17;95.82;100718.66;4855590;29;20056;-73
2023/01/11 07:28:15;;;;;;;15.98;2.88;;;;;;;10.12;95.88;100722.34;4863842;29;20045;-74
2023/01/11 07:30:42;;;;;;;16.10;2.40;;;;;;;10.08;95.79;100718.94;4871828;29;20050;-73
2023/01/11 07:33:26;;;;;;;13.40;2.63;;;;;;;10.03;95.78;100726.09;4857776;29;20046;-73
2023/01/11 07:35:54;;;;;;;14.18;2.60;;;;;;;10.00;95.82;100739.38;4872806;29;20046;-72
2023/01/11 07:38:21;;;;;;;13.27;2.20;;;;;;;9.98;96.28;100742.03;4864038;29;20053;-72
2023/01/11 07:40:48;;;;;;;17.20;2.80;;;;;;;9.99;96.07;100745.56;4877780;29;20053;-72
2023/01/11 07:43:18;;;;;;;15.02;2.42;;;;;;;9.98;95.80;100749.09;4872307;29;20072;-73
2023/01/11 07:45:48;;;;;;;17.98;3.00;;;;;;;9.99;95.76;100761.34;4872050;29;20051;-73
2023/01/11 07:48:25;;;;;;;17.23;2.65;;;;;;;9.98;95.77;100763.09;4868244;29;20161;-73
2023/01/11 07:50:53;;;;;;;13.88;2.40;;;;;;;10.00;94.95;100763.94;4852534;29;20054;-72
2023/01/11 07:53:24;;;;;;;21.45;3.15;;;;;;;9.98;95.24;100763.09;4853893;29;20050;-73
2023/01/11 07:55:54;;;;;;;14.80;2.55;;;;;;;9.98;94.73;100770.16;4856061;29;20049;-73
2023/01/11 07:58:21;;;;;;;13.13;2.85;;;;;;;9.95;94.87;100787.78;4860512;29;20034;-73
2023/01/11 08:00:48;;;;;;;17.80;3.00;;;;;;;9.96;94.87;100780.75;4868268;29;20098;-72
2023/01/11 08:03:15;;;;;;;20.73;2.60;;;;;;;9.94;94.26;100788.66;4861281;29;20053;-73
2023/01/11 08:05:42;;;;;;;14.02;2.40;;;;;;;9.92;94.48;100789.63;4866777;29;20045;-74
2023/01/11 08:08:09;;;;;;;15.52;1.80;;;;;;;9.92;94.12;100798.38;4874553;29;20543;-72
2023/01/11 08:10:36;;;;;;;15.80;2.58;;;;;;;9.93;93.95;100805.38;4873130;29;20105;-71
2023/01/11 08:15:58;;;;;;;17.52;2.85;;;;;;;9.90;94.23;100805.47;4863777;29;20420;-73
2023/01/11 08:18:25;;;;;;;19.52;2.97;;;;;;;9.89;94.24;100806.38;4872839;29;20049;-72
2023/01/11 08:20:52;;;;;;;15.40;2.88;;;;;;;9.87;94.17;100805.56;4871306;29;20466;-72
2023/01/11 08:23:20;;;;;;;16.20;2.88;;;;;;;9.84;93.92;100816.16;4868807;29;20451;-72
2023/01/11 08:25:47;;;;;;;18.50;3.20;;;;;;;9.82;93.56;100817.13;4872122;29;20872;-72
2023/01/11 08:28:14;;;;;;;18.02;2.65;;;;;;;9.78;93.65;100825.09;4871836;29;20077;-72
2023/01/11 08:30:41;;;;;;;16.63;2.42;;;;;;;9.77;93.36;100826.00;4867218;29;20049;-73
2023/01/11 08:33:08;;;;;;;15.40;2.70;;;;;;;9.76;93.03;100841.84;4868638;29;20520;-71
2023/01/11 08:35:37;;;;;;;15.23;3.13;;;;;;;9.73;92.91;100849.81;4871852;29;20137;-71
2023/01/11 08:38:05;;;;;;;15.82;2.72;;;;;;;9.75;92.70;100856.78;4871462;29;20058;-71
2023/01/11 08:40:33;;;;;;;16.02;2.47;;;;;;;9.72;92.99;100870.03;4872665;29;20046;-71
2023/01/11 08:43:00;;;;;;;17.75;3.42;;;;;;;9.72;92.50;100879.69;4872060;29;20109;-71
2023/01/11 08:45:27;;;;;;;15.75;2.47;;;;;;;9.75;91.82;100887.50;4870134;29;20102;-71
2023/01/11 08:47:55;;;;;;;15.43;2.42;;;;;;;9.73;92.09;100879.66;4871684;29;20057;-72
2023/01/11 08:50:22;;;;;;;19.40;2.35;;;;;;;9.75;91.84;100890.13;4872242;29;20050;-71
2023/01/11 08:52:50;;;;;;;18.90;3.03;;;;;;;9.75;91.94;100883.13;4874063;29;20061;-71
2023/01/11 08:55:18;;;;;;;16.02;2.80;;;;;;;9.79;91.08;100887.38;4875074;29;20128;-71
2023/01/11 08:57:46;;;;;;;20.65;2.90;;;;;;;9.80;90.99;100883.00;4874402;29;20102;-71
2023/01/11 09:00:14;;;;;;;15.98;2.40;;;;;;;9.82;90.69;100881.16;4871279;29;20571;-71
2023/01/11 09:02:41;;;;;;;17.25;3.22;;;;;;;9.82;89.97;100888.22;4856812;29;20046;-71
2023/01/11 09:05:09;;;;;;;11.90;2.63;;;;;;;9.79;90.12;100884.75;4856565;29;20045;-71
2023/01/11 09:07:35;;;;;;;14.55;2.10;;;;;;;9.79;90.24;100883.91;4873639;29;20125;-72
2023/01/11 09:10:03;;;;;;;16.08;2.35;;;;;;;9.80;89.72;100893.53;4874767;29;20054;-72
2023/01/11 09:12:31;;;;;;;13.55;2.30;;;;;;;9.79;90.21;100899.69;4875042;29;20210;-71
2023/01/11 09:14:59;;;;;;;15.20;2.20;;;;;;;9.81;89.72;100903.16;4871782;29;20153;-72
2023/01/11 09:17:26;;;;;;;15.63;2.50;;;;;;;9.83;89.76;100903.13;4874052;29;20132;-71
2023/01/11 09:19:53;;;;;;;19.35;2.60;;;;;;;9.83;89.86;100908.38;4873492;29;20045;-71
2023/01/11 09:22:20;;;;;;;14.20;2.60;;;;;;;9.86;89.71;100911.78;4875739;29;20060;-71
2023/01/11 09:24:47;;;;;;;13.38;2.42;;;;;;;9.87;89.87;100908.25;4875593;29;20072;-71
2023/01/11 09:27:15;;;;;;;14.45;2.47;;;;;;;9.89;89.55;100910.84;4872647;29;20045;-71
2023/01/11 09:29:42;;;;;;;20.30;3.33;;;;;;;9.91;89.52;100911.66;4862667;29;20046;-71
2023/01/11 09:32:09;;;;;;;17.63;2.70;;;;;;;9.90;88.42;100910.81;4872024;29;20054;-71
2023/01/11 09:34:36;;;;;;;14.48;2.30;;;;;;;9.86;88.86;100908.31;4875456;29;20046;-71
2023/01/11 09:37:05;;;;;;;20.30;2.67;;;;;;;9.87;88.26;100917.94;4872424;29;20057;-71
2023/01/11 09:39:33;;;;;;;13.35;2.53;;;;;;;9.83;88.95;100927.66;4873275;29;20102;-71
2023/01/11 09:42:15;;;;;;;20.35;3.05;;;;;;;9.81;88.75;100934.75;4875276;29;20399;-71
2023/01/11 09:44:59;;;;;;;18.45;3.67;;;;;;;9.77;89.51;100941.84;4864109;29;20050;-71
2023/01/11 09:47:51;;;;;;;16.38;2.63;;;;;;;9.74;89.75;100952.47;4867107;29;20057;-71
2023/01/11 09:50:18;;;;;;;19.38;3.75;;;;;;;9.73;89.45;100944.59;4880405;29;20101;-71
2023/01/11 09:52:52;;;;;;;16.98;3.80;;;;;;;9.71;89.34;100943.78;4875560;29;20050;-71
2023/01/11 09:55:34;;;;;;;19.77;2.92;;;;;;;9.65;89.35;100939.53;4870584;29;20049;-71
2023/01/11 09:59:05;;;;;;;16.45;3.28;;;;;;;9.60;89.58;100950.19;4870685;29;20054;-71
2023/01/11 10:02:04;;;;;;;16.83;3.50;;;;;;;9.52;90.03;100956.53;4839482;29;20046;-71
2023/01/11 10:04:43;;;;;;;16.00;3.72;;;;;;;9.46;90.00;100960.16;4865286;29;20049;-72
2023/01/11 10:08:10;;;;;;;16.98;2.78;;;;;;;9.43;90.36;100954.97;4871979;29;20169;-71
2023/01/11 10:11:11;;;;;;;19.58;4.90;;;;;;;9.35;90.49;100963.06;4865431;29;20099;-72
2023/01/11 10:14:29;;;;;;;29.52;16.75;;;;;;;9.27;90.49;100976.38;4858811;29;20060;-71
2023/01/11 10:17:36;;;;;;;19.75;3.83;;;;;;;9.18;91.06;100960.81;4855137;29;20042;-71
2023/01/11 10:20:42;;;;;;;17.55;3.97;;;;;;;9.17;91.07;100969.59;4855862;29;20526;-71
2023/01/11 10:23:24;;;;;;;18.65;3.83;;;;;;;9.24;90.99;100976.44;4839190;29;20045;-71
2023/01/11 10:25:57;;;;;;;19.77;4.40;;;;;;;9.30;91.24;100973.69;4873964;29;20106;-71
2023/01/11 10:29:02;;;;;;;23.60;6.70;;;;;;;9.40;91.10;100973.47;4873516;29;20057;-71
2023/01/11 10:31:44;;;;;;;17.70;2.78;;;;;;;9.46;90.65;100970.69;4873418;29;20737;-71
2023/01/11 10:37:45;;;;;;;19.67;6.35;;;;;;;9.60;90.04;100973.00;4855862;29;20050;-71
2023/01/11 10:43:40;;;;;;;27.15;9.43;;;;;;;9.67;89.97;100964.03;4873882;29;20041;-71
2023/01/11 10:46:16;;;;;;;18.60;3.70;;;;;;;9.71;89.90;100970.13;4872141;29;20049;-71
2023/01/11 10:48:45;;;;;;;19.38;2.80;;;;;;;9.71;90.00;100968.34;4872955;29;20053;-70
2023/01/11 10:51:29;;;;;;;15.48;2.50;;;;;;;9.76;89.35;100969.09;4873897;29;20041;-69
2023/01/11 10:54:13;;;;;;;15.25;2.33;;;;;;;9.82;88.55;100969.84;4869976;29;20041;-70
2023/01/11 10:57:24;;;;;;;19.45;3.40;;;;;;;9.81;88.63;100973.38;4870264;29;20126;-70
2023/01/11 11:00:16;;;;;;;14.98;2.83;;;;;;;9.83;87.00;100975.06;4872796;29;20507;-70
2023/01/11 11:03:31;;;;;;;17.52;3.35;;;;;;;9.87;87.89;100979.34;4855488;29;20054;-70
2023/01/11 11:06:18;;;;;;;13.93;2.20;;;;;;;9.94;87.64;100969.53;4843783;29;20070;-70
2023/01/11 11:09:02;;;;;;;14.43;2.90;;;;;;;9.96;87.74;100970.38;4854755;29;20060;-70
2023/01/11 11:11:51;;;;;;;18.48;2.65;;;;;;;10.02;87.47;100977.25;4856767;29;20423;-70
2023/01/11 11:14:43;;;;;;;14.45;2.58;;;;;;;10.08;86.88;100967.38;4858016;29;20057;-70
2023/01/11 11:17:31;;;;;;;100.95;37.33;;;;;;;10.14;87.02;100968.16;4856884;29;20050;-70
2023/01/11 11:19:59;;;;;;;23.92;6.50;;;;;;;10.16;86.70;100964.56;4868114;29;20049;-71
2023/01/11 11:22:26;;;;;;;11.00;3.60;;;;;;;10.16;85.40;100961.94;4872416;29;20097;-71
2023/01/11 11:25:11;;;;;;;16.65;3.97;;;;;;;10.22;84.66;100968.81;4870341;29;20050;-71
2023/01/11 11:27:49;;;;;;;15.73;3.63;;;;;;;10.25;85.43;100968.72;4867420;29;20054;-71
2023/01/11 11:30:46;;;;;;;19.40;3.05;;;;;;;10.33;84.22;100976.41;4871016;29;20060;-70
2023/01/11 11:33:22;;;;;;;16.30;3.60;;;;;;;10.37;84.35;100978.06;4866602;29;20065;-70
2023/01/11 11:36:00;;;;;;;19.35;4.18;;;;;;;10.43;83.29;100975.28;4869830;29;20534;-71
2023/01/11 11:38:31;;;;;;;15.73;3.08;;;;;;;10.44;83.61;100987.56;4871179;29;20056;-71
2023/01/11 11:41:08;;;;;;;16.13;3.17;;;;;;;10.45;83.84;100980.53;4871890;29;20049;-72
2023/01/11 11:43:38;;;;;;;18.70;3.33;;;;;;;10.48;83.86;100983.94;4861190;29;20088;-71
2023/01/11 11:46:14;;;;;;;13.20;3.20;;;;;;;10.49;83.71;100984.78;4873138;29;20050;-71
2023/01/11 11:49:16;;;;;;;16.10;2.38;;;;;;;10.51;84.06;100977.72;4870692;29;20897;-71
2023/01/11 11:51:46;;;;;;;14.10;2.75;;;;;;;10.53;83.09;100978.53;4858427;29;20054;-71
2023/01/11 11:54:35;;;;;;;13.32;2.22;;;;;;;10.57;82.45;100983.69;4854437;29;20054;-71
2023/01/11 11:57:20;;;;;;;12.93;2.50;;;;;;;10.64;81.73;100999.31;4854233;29;20050;-71
2023/01/11 12:00:00;;;;;;;15.77;3.45;;;;;;;10.71;81.88;100998.25;4859518;29;20136;-72
2023/01/11 12:02:35;;;;;;;17.67;2.10;;;;;;;10.77;80.35;101000.72;4870877;29;20053;-72
2023/01/11 12:05:09;;;;;;;16.42;2.60;;;;;;;10.85;80.11;101003.13;4873162;29;20048;-72
2023/01/11 12:07:44;;;;;;;14.90;2.42;;;;;;;10.86;80.74;101016.25;4861745;29;20110;-73
2023/01/11 12:10:25;;;;;;;18.20;2.45;;;;;;;10.87;79.56;100998.69;4865663;29;20041;-72
2023/01/11 12:13:00;;;;;;;12.45;3.92;;;;;;;10.87;79.95;101002.19;4867778;29;20182;-73
2023/01/11 12:15:29;;;;;;;;;;;;;;;10.88;79.78;101010.97;4859206;29;20045;-75
2023/01/11 12:18:26;;;;;;;19.40;3.50;;;;;;;10.94;79.50;101002.88;4866055;29;19928;-74
2023/01/11 12:20:54;;;;;;;11.80;2.55;;;;;;;10.98;77.98;101001.00;4863591;29;20064;-74
2023/01/11 12:23:24;;;;;;;15.73;3.72;;;;;;;10.96;78.76;101001.06;4869835;29;20538;-73
2023/01/11 12:26:23;;;;;;;11.88;2.25;;;;;;;10.97;78.09;100991.34;4866122;29;20134;-73
2023/01/11 12:29:24;;;;;;;19.75;2.80;;;;;;;10.96;77.54;100994.91;4866779;29;20054;-73